createdAt,value
2019-05-18T00:01:58.884Z,4.20
2019-05-18T00:08:01.266Z,5.25
2019-05-18T00:14:03.535Z,4.60
2019-05-18T00:20:07.711Z,4.55
2019-05-18T00:26:09.925Z,4.20
2019-05-18T00:32:12.133Z,3.80
2019-05-18T00:38:14.296Z,4.65
2019-05-18T00:44:16.485Z,4.55
2019-05-18T00:50:18.691Z,4.22
2019-05-18T00:56:20.936Z,5.03
2019-05-18T01:02:23.124Z,4.50
2019-05-18T01:08:25.679Z,4.67
2019-05-18T01:14:27.957Z,4.58
2019-05-18T01:20:30.098Z,6.17
2019-05-18T01:26:32.258Z,5.12
2019-05-18T01:32:34.566Z,4.20
2019-05-18T01:38:36.680Z,6.83
2019-05-18T01:44:38.927Z,5.00
2019-05-18T01:50:41.702Z,4.45
2019-05-18T01:56:43.881Z,6.22
2019-05-18T02:02:46.044Z,6.62
2019-05-18T02:08:49.469Z,5.10
2019-05-18T02:14:51.729Z,5.45
2019-05-18T02:20:54.091Z,5.85
2019-05-18T02:26:56.464Z,6.85
2019-05-18T02:32:58.909Z,4.92
2019-05-18T02:39:08.390Z,5.50
2019-05-18T02:45:10.812Z,6.10
2019-05-18T02:51:13.136Z,6.00
2019-05-18T02:57:15.409Z,4.47
2019-05-18T03:03:17.536Z,5.25
2019-05-18T03:09:19.786Z,6.83
2019-05-18T03:15:21.972Z,5.97
2019-05-18T03:21:24.326Z,6.37
2019-05-18T03:27:26.563Z,5.22
2019-05-18T03:33:30.503Z,6.08
2019-05-18T03:39:32.864Z,4.90
2019-05-18T03:45:35.018Z,6.45
2019-05-18T03:51:37.156Z,6.70
2019-05-18T03:57:39.440Z,7.92
2019-05-18T04:03:41.663Z,4.95
2019-05-18T04:09:43.853Z,4.50
2019-05-18T04:15:46.112Z,3.98
2019-05-18T04:21:48.298Z,3.22
2019-05-18T04:27:50.689Z,3.67
2019-05-18T04:33:52.909Z,2.92
2019-05-18T04:39:55.081Z,3.12
2019-05-18T04:45:58.331Z,3.83
2019-05-18T04:52:00.516Z,4.10
2019-05-18T04:58:02.844Z,3.60
2019-05-18T05:04:05.120Z,3.52
2019-05-18T05:10:08.218Z,4.62
2019-05-18T05:16:10.795Z,4.72
2019-05-18T05:22:13.014Z,4.60
2019-05-18T05:28:15.239Z,4.25
2019-05-18T05:34:17.496Z,4.10
2019-05-18T05:40:19.788Z,3.40
2019-05-18T05:46:22.104Z,3.10
2019-05-18T05:52:24.456Z,2.85
2019-05-18T05:58:26.803Z,3.30
2019-05-18T06:04:29.041Z,3.02
2019-05-18T06:10:31.287Z,2.50
2019-05-18T06:16:33.604Z,2.80
2019-05-18T06:22:35.926Z,2.33
2019-05-18T06:28:38.222Z,2.20
2019-05-18T06:34:40.499Z,2.52
2019-05-18T06:40:42.988Z,2.67
2019-05-18T06:46:45.272Z,3.05
2019-05-18T06:52:47.647Z,3.83
2019-05-18T06:58:53.015Z,3.40
2019-05-18T07:04:55.163Z,3.10
2019-05-18T07:10:57.423Z,3.98
2019-05-18T07:16:59.615Z,3.40
2019-05-18T07:23:01.755Z,2.85
2019-05-18T07:29:05.793Z,3.42
2019-05-18T07:35:08.351Z,3.20
2019-05-18T07:41:10.722Z,3.83
2019-05-18T07:47:13.099Z,3.65
2019-05-18T07:53:15.436Z,3.33
2019-05-18T07:59:19.846Z,2.77
2019-05-18T08:05:21.819Z,3.22
2019-05-18T08:11:24.010Z,3.75
2019-05-18T08:17:26.172Z,3.50
2019-05-18T08:23:28.553Z,2.45
2019-05-18T08:29:30.680Z,5.40
2019-05-18T08:35:33.071Z,2.52
2019-05-18T08:41:35.579Z,2.65
2019-05-18T08:47:37.778Z,2.37
2019-05-18T08:53:39.979Z,3.42
2019-05-18T08:59:42.174Z,1.80
2019-05-18T09:05:44.581Z,2.17
2019-05-18T09:11:46.760Z,2.17
2019-05-18T09:17:49.020Z,2.70
2019-05-18T09:23:51.381Z,4.37
2019-05-18T09:29:53.700Z,1.65
2019-05-18T09:35:55.876Z,1.98
2019-05-18T09:41:58.080Z,1.80
2019-05-18T09:48:00.466Z,1.67
2019-05-18T09:54:02.723Z,1.40
2019-05-18T10:00:05.879Z,4.58
2019-05-18T10:06:09.603Z,2.98
2019-05-18T10:12:12.484Z,1.50
2019-05-18T10:18:14.983Z,2.72
2019-05-18T10:24:24.617Z,1.37
2019-05-18T10:30:27.074Z,1.50
2019-05-18T10:36:29.457Z,1.57
2019-05-18T10:42:31.913Z,1.37
2019-05-18T10:48:34.432Z,1.20
2019-05-18T10:54:36.698Z,2.52
2019-05-18T11:00:38.973Z,1.80
2019-05-18T11:06:41.312Z,1.10
2019-05-18T11:12:43.855Z,1.62
2019-05-18T11:18:46.174Z,1.80
2019-05-18T11:24:48.455Z,3.08
2019-05-18T11:30:51.671Z,2.02
2019-05-18T11:36:53.995Z,2.52
2019-05-18T11:42:56.224Z,2.33
2019-05-18T11:48:58.776Z,2.22
2019-05-18T11:55:01.551Z,3.67
2019-05-18T12:01:05.495Z,3.30
2019-05-18T12:07:08.173Z,2.40
2019-05-18T12:13:10.440Z,3.15
2019-05-18T12:19:12.976Z,2.80
2019-05-18T12:25:16.118Z,2.47
2019-05-18T12:31:18.559Z,2.30
2019-05-18T12:37:22.294Z,2.55
2019-05-18T12:43:24.789Z,2.37
2019-05-18T12:49:27.741Z,2.70
2019-05-18T12:55:30.013Z,3.60
2019-05-18T13:01:32.300Z,2.58
2019-05-18T13:07:34.604Z,2.80
2019-05-18T13:13:36.941Z,2.83
2019-05-18T13:19:39.262Z,2.55
2019-05-18T13:25:41.608Z,3.98
2019-05-18T13:31:44.220Z,3.37
2019-05-18T13:37:46.676Z,3.40
2019-05-18T13:43:48.979Z,2.55
2019-05-18T13:49:51.584Z,2.33
2019-05-18T13:55:53.924Z,2.50
2019-05-18T14:01:56.297Z,2.65
2019-05-18T14:07:58.726Z,2.27
2019-05-18T14:14:01.065Z,3.83
2019-05-18T14:20:03.868Z,3.15
2019-05-18T14:26:06.257Z,3.35
2019-05-18T14:32:10.962Z,2.05
2019-05-18T14:38:13.058Z,3.50
2019-05-18T14:44:15.300Z,1.70
2019-05-18T14:50:19.623Z,1.80
2019-05-18T14:56:21.909Z,2.83
2019-05-18T15:02:29.043Z,3.40
2019-05-18T15:08:31.425Z,3.10
2019-05-18T15:14:33.956Z,6.22
2019-05-18T15:20:36.367Z,2.98
2019-05-18T15:26:38.773Z,2.50
2019-05-18T15:32:41.093Z,2.58
2019-05-18T15:38:43.371Z,2.17
2019-05-18T15:44:45.814Z,2.27
2019-05-18T15:50:51.152Z,3.25
2019-05-18T15:56:55.592Z,2.33
2019-05-18T16:02:58.964Z,2.20
2019-05-18T16:09:01.334Z,2.40
2019-05-18T16:15:04.440Z,2.58
2019-05-18T16:21:06.690Z,3.87
2019-05-18T16:27:08.966Z,2.58
2019-05-18T16:33:11.975Z,4.28
2019-05-18T16:39:14.303Z,3.08
2019-05-18T16:45:16.723Z,3.70
2019-05-18T16:51:19.031Z,3.52
2019-05-18T16:57:21.315Z,3.70
2019-05-18T17:03:23.700Z,4.12
2019-05-18T17:09:26.146Z,4.03
2019-05-18T17:15:28.619Z,4.58
2019-05-18T17:21:30.890Z,4.53
2019-05-18T17:27:33.683Z,5.95
2019-05-18T17:33:36.919Z,7.83
2019-05-18T17:39:40.117Z,7.65
2019-05-18T17:45:42.375Z,8.30
2019-05-18T17:51:45.714Z,8.90
2019-05-18T17:57:47.931Z,9.65
2019-05-18T18:03:50.366Z,9.75
2019-05-18T18:09:53.067Z,10.75
2019-05-18T18:15:55.443Z,9.75
2019-05-18T18:21:57.849Z,12.05
2019-05-18T18:28:00.184Z,12.60
2019-05-18T18:34:02.489Z,10.45
2019-05-18T18:40:07.649Z,12.40
2019-05-18T18:46:09.867Z,12.37
2019-05-18T18:52:13.442Z,14.78
2019-05-18T18:58:15.978Z,13.20
2019-05-18T19:04:18.725Z,13.93
2019-05-18T19:10:20.956Z,12.80
2019-05-18T19:16:23.383Z,12.23
2019-05-18T19:22:25.665Z,13.93
2019-05-18T19:28:28.177Z,14.68
2019-05-18T19:34:30.412Z,15.20
2019-05-18T19:40:32.815Z,14.10
2019-05-18T19:46:35.054Z,14.10
2019-05-18T19:52:37.384Z,13.58
2019-05-18T19:58:39.663Z,16.00
2019-05-18T20:04:42.032Z,15.85
2019-05-18T20:10:44.415Z,14.20
2019-05-18T20:16:46.845Z,16.35
2019-05-18T20:22:49.220Z,16.40
2019-05-18T20:28:51.472Z,17.48
2019-05-18T20:34:55.425Z,16.32
2019-05-18T20:40:57.862Z,17.42
2019-05-18T20:47:00.033Z,14.63
2019-05-18T20:53:02.303Z,16.25
2019-05-18T20:59:04.646Z,18.60
2019-05-18T21:05:08.041Z,17.80
2019-05-18T21:11:10.352Z,18.32
2019-05-18T21:17:14.766Z,18.10
2019-05-18T21:23:17.106Z,16.93
2019-05-18T21:29:19.447Z,15.80
2019-05-18T21:35:21.691Z,16.95
2019-05-18T21:41:23.961Z,17.35
2019-05-18T21:47:26.175Z,16.62
2019-05-18T21:53:28.389Z,15.60
2019-05-18T21:59:30.759Z,16.97
2019-05-18T22:05:33.112Z,18.12
2019-05-18T22:11:35.480Z,16.60
2019-05-18T22:17:56.180Z,16.15
2019-05-18T22:23:58.483Z,17.45
2019-05-18T22:30:00.752Z,16.42
2019-05-18T22:36:02.955Z,16.42
2019-05-18T22:42:05.262Z,15.63
2019-05-18T22:48:07.447Z,16.82
2019-05-18T22:54:09.618Z,19.57
2019-05-18T23:00:12.277Z,15.40
2019-05-18T23:06:14.536Z,17.00
2019-05-18T23:12:16.940Z,17.30
2019-05-18T23:18:19.166Z,18.17
2019-05-18T23:24:21.499Z,17.77
2019-05-18T23:30:23.715Z,18.77
2019-05-18T23:36:25.855Z,19.10
2019-05-18T23:42:28.063Z,20.25
2019-05-18T23:48:30.375Z,17.87
2019-05-18T23:54:32.532Z,18.55
